Time;durP1;ratioP1;P1;durP2;ratioP2;P2;SDS_P1;SDS_P2;PMS_P1;PMS_P2;Temp;Humidity;BMP_temperature;BMP_pressure;BME280_temperature;BME280_humidity;BME280_pressure;Samples;Min_cycle;Max_cycle;Signal;HPM_P1;HPM_P2
2021/06/09 00:01:23;;;;;;;1.55;1.45;;;;;;;-148.58;100.00;55229.56;5032772;28;20025;-62
2021/06/09 00:03:49;;;;;;;1.90;1.80;;;;;;;-148.58;100.00;55229.56;5032457;28;20100;-62
2021/06/09 00:06:14;;;;;;;1.95;1.83;;;;;;;-148.58;100.00;55229.56;5032705;28;20152;-62
2021/06/09 00:08:40;;;;;;;1.60;1.50;;;;;;;-148.58;100.00;55229.56;5032442;28;20522;-64
2021/06/09 00:11:05;;;;;;;2.10;1.90;;;;;;;-148.58;100.00;55229.56;5032611;28;20037;-62
2021/06/09 00:13:32;;;;;;;1.80;1.70;;;;;;;-148.58;100.00;55229.56;5032337;28;20036;-63
2021/06/09 00:16:01;;;;;;;1.70;1.60;;;;;;;-148.58;100.00;55229.56;5032452;28;20068;-62
2021/06/09 00:18:27;;;;;;;2.22;1.90;;;;;;;-148.58;100.00;55229.56;5032853;28;20018;-62
2021/06/09 00:20:52;;;;;;;2.25;1.60;;;;;;;-148.58;100.00;55229.56;5031798;28;20483;-62
2021/06/09 00:23:20;;;;;;;1.55;1.45;;;;;;;-148.58;100.00;55229.56;5032562;28;20476;-63
2021/06/09 00:25:50;;;;;;;1.65;1.55;;;;;;;-148.58;100.00;55229.56;5032159;28;20049;-61
2021/06/09 00:28:16;;;;;;;1.48;1.38;;;;;;;-148.58;100.00;55229.56;5032412;28;20025;-62
2021/06/09 00:30:42;;;;;;;1.60;1.50;;;;;;;-148.58;100.00;55229.56;5032228;28;20025;-62
2021/06/09 00:33:08;;;;;;;1.65;1.50;;;;;;;-148.58;100.00;55229.56;5032270;28;20060;-61
2021/06/09 00:35:33;;;;;;;1.60;1.50;;;;;;;-148.58;100.00;55229.56;5032222;28;20039;-63
2021/06/09 00:37:58;;;;;;;1.40;1.30;;;;;;;-148.58;100.00;55229.56;5032189;28;20022;-63
2021/06/09 00:40:24;;;;;;;1.70;1.50;;;;;;;-148.58;100.00;55229.56;5032341;28;20047;-62
2021/06/09 00:43:09;;;;;;;1.70;1.60;;;;;;;-148.58;100.00;55229.56;5031857;28;20056;-62
2021/06/09 00:45:37;;;;;;;1.60;1.50;;;;;;;-148.58;100.00;55229.56;5014970;28;20455;-62
2021/06/09 00:48:03;;;;;;;1.60;1.50;;;;;;;-148.58;100.00;55229.56;5032170;28;20051;-63
2021/06/09 00:50:29;;;;;;;4.32;1.80;;;;;;;-148.58;100.00;55229.56;5032188;28;20025;-63
2021/06/09 00:53:26;;;;;;;1.98;1.60;;;;;;;-148.58;100.00;55229.56;5031912;28;20032;-62
2021/06/09 00:55:40;;;;;;;1.85;1.75;;;;;;;-148.58;100.00;55229.56;5031773;28;20037;-64
2021/06/09 00:58:05;;;;;;;1.27;1.27;;;;;;;-148.58;100.00;55229.56;5032174;28;20025;-63
2021/06/09 01:00:30;;;;;;;1.63;1.50;;;;;;;-148.58;100.00;55229.56;5032082;28;20022;-62
2021/06/09 01:02:56;;;;;;;2.05;1.85;;;;;;;-148.58;100.00;55229.56;5030685;28;20064;-62
2021/06/09 01:05:21;;;;;;;1.60;1.50;;;;;;;-148.58;100.00;55229.56;5032157;28;20048;-64
2021/06/09 01:07:46;;;;;;;1.75;1.63;;;;;;;-148.58;100.00;55229.56;5031949;28;20417;-63
2021/06/09 01:10:12;;;;;;;1.55;1.45;;;;;;;-148.58;100.00;55229.56;5031811;28;20034;-62
2021/06/09 01:12:37;;;;;;;1.90;1.80;;;;;;;-148.58;100.00;55229.56;5031854;28;20465;-63
2021/06/09 01:15:04;;;;;;;2.47;1.80;;;;;;;-148.58;100.00;55229.56;5031827;28;20051;-62
2021/06/09 01:17:29;;;;;;;1.90;1.80;;;;;;;-148.58;100.00;55229.56;5031802;28;20070;-63
2021/06/09 01:19:55;;;;;;;1.60;1.50;;;;;;;-148.58;100.00;55229.56;5032441;28;20108;-63
2021/06/09 01:22:20;;;;;;;1.70;1.60;;;;;;;-148.58;100.00;55229.56;5031990;28;20464;-62
2021/06/09 01:24:45;;;;;;;2.20;2.00;;;;;;;-148.58;100.00;55229.56;5031770;28;20021;-63
2021/06/09 01:27:11;;;;;;;1.90;1.80;;;;;;;-148.58;100.00;55229.56;5031848;28;20030;-64
2021/06/09 01:29:36;;;;;;;1.67;1.58;;;;;;;-148.58;100.00;55229.56;5031739;28;20036;-62
2021/06/09 01:32:03;;;;;;;1.90;1.73;;;;;;;-148.58;100.00;55229.56;5032208;28;20087;-62
2021/06/09 01:34:28;;;;;;;1.38;1.20;;;;;;;-148.58;100.00;55229.56;5034510;28;20029;-63
2021/06/09 01:36:53;;;;;;;1.88;1.77;;;;;;;-148.58;100.00;55229.56;5035122;28;20067;-64
2021/06/09 01:39:19;;;;;;;1.52;1.42;;;;;;;-148.58;100.00;55229.56;5035413;28;20380;-62
2021/06/09 01:41:47;;;;;;;1.60;1.50;;;;;;;-148.58;100.00;55229.56;5035081;28;20064;-62
2021/06/09 01:44:13;;;;;;;1.85;1.75;;;;;;;-148.58;100.00;55229.56;5035017;28;20628;-62
2021/06/09 01:46:39;;;;;;;2.00;1.50;;;;;;;-148.58;100.00;55229.56;5035016;28;20116;-63
2021/06/09 01:49:12;;;;;;;1.80;1.70;;;;;;;-148.58;100.00;55229.56;5035068;28;20026;-62
2021/06/09 01:51:38;;;;;;;1.70;1.60;;;;;;;-148.58;100.00;55229.56;5034977;28;20119;-62
2021/06/09 01:54:07;;;;;;;1.30;1.20;;;;;;;-148.58;100.00;55229.56;5035255;28;20033;-63
2021/06/09 01:56:34;;;;;;;1.60;1.50;;;;;;;-148.58;100.00;55229.56;5034993;28;20048;-63
2021/06/09 01:59:20;;;;;;;2.55;1.60;;;;;;;-148.58;100.00;55229.56;5034838;28;20029;-62
2021/06/09 02:01:47;;;;;;;1.60;1.50;;;;;;;-148.58;100.00;55229.56;5016843;28;20120;-63
2021/06/09 02:04:14;;;;;;;2.17;1.75;;;;;;;-148.58;100.00;55229.56;5034912;28;20030;-63
2021/06/09 02:06:41;;;;;;;1.60;1.50;;;;;;;-148.58;100.00;55229.56;5017152;28;20376;-62
2021/06/09 02:09:07;;;;;;;2.15;1.70;;;;;;;-148.58;100.00;55229.56;5034817;28;20037;-62
2021/06/09 02:11:32;;;;;;;1.80;1.70;;;;;;;-148.58;100.00;55229.56;5034680;28;20025;-63
2021/06/09 02:13:59;;;;;;;1.65;1.55;;;;;;;-148.58;100.00;55229.56;5034523;28;20469;-63
2021/06/09 02:16:24;;;;;;;1.58;1.48;;;;;;;-148.58;100.00;55229.56;5034735;28;20481;-62
2021/06/09 02:18:50;;;;;;;1.60;1.50;;;;;;;-148.58;100.00;55229.56;5034333;28;20029;-63
2021/06/09 02:21:15;;;;;;;1.88;1.60;;;;;;;-148.58;100.00;55229.56;5034664;28;20059;-63
2021/06/09 02:23:45;;;;;;;1.48;1.38;;;;;;;-148.58;100.00;55229.56;5034285;28;20112;-63
2021/06/09 02:26:11;;;;;;;1.73;1.63;;;;;;;-148.58;100.00;55229.56;5034476;28;20049;-62
2021/06/09 02:28:37;;;;;;;1.60;1.50;;;;;;;-148.58;100.00;55229.56;5034400;28;20060;-63
2021/06/09 02:31:03;;;;;;;2.15;1.77;;;;;;;-148.58;100.00;55229.56;5034320;28;20033;-63
2021/06/09 02:33:28;;;;;;;1.50;1.40;;;;;;;-148.58;100.00;55229.56;5034257;28;20032;-64
2021/06/09 02:35:55;;;;;;;1.55;1.45;;;;;;;-148.58;100.00;55229.56;5034145;28;20021;-62
2021/06/09 02:38:21;;;;;;;1.75;1.65;;;;;;;-148.58;100.00;55229.56;5034324;28;20029;-62
2021/06/09 02:40:50;;;;;;;1.58;1.48;;;;;;;-148.58;100.00;55229.56;5033961;28;20033;-63
2021/06/09 02:43:16;;;;;;;1.60;1.50;;;;;;;-148.58;100.00;55229.56;5034035;28;20057;-63
2021/06/09 02:45:46;;;;;;;1.67;1.58;;;;;;;-148.58;100.00;55229.56;5033867;28;20028;-62
2021/06/09 02:48:15;;;;;;;1.58;1.48;;;;;;;-148.58;100.00;55229.56;5034099;28;20496;-63
2021/06/09 02:50:40;;;;;;;2.33;1.40;;;;;;;-148.58;100.00;55229.56;5033874;28;20075;-63
2021/06/09 02:53:18;;;;;;;1.48;1.38;;;;;;;-148.58;100.00;55229.56;5033862;28;20033;-62
2021/06/09 02:55:52;;;;;;;2.25;1.60;;;;;;;-148.58;100.00;55229.56;5033707;28;20437;-62
2021/06/09 02:58:52;;;;;;;1.50;1.40;;;;;;;-148.58;100.00;55229.56;5014226;28;20022;-63
2021/06/09 03:01:28;;;;;;;1.45;1.35;;;;;;;-148.58;100.00;55229.56;5014073;28;20068;-62
2021/06/09 03:04:02;;;;;;;1.17;1.08;;;;;;;-148.58;100.00;55229.56;5014196;28;20036;-62
2021/06/09 03:06:42;;;;;;;1.25;1.15;;;;;;;-148.58;100.00;55229.56;5013999;28;20358;-63
2021/06/09 03:09:22;;;;;;;1.65;1.50;;;;;;;-148.58;100.00;55229.56;5014171;28;20501;-62
2021/06/09 03:12:19;;;;;;;1.60;1.50;;;;;;;-148.58;100.00;55229.56;5013597;28;20029;-63
2021/06/09 03:15:13;;;;;;;1.00;1.00;;;;;;;-148.58;100.00;55229.56;5017533;28;20495;-62
2021/06/09 03:17:52;;;;;;;1.33;1.23;;;;;;;-148.58;100.00;55229.56;5033306;28;20037;-63
2021/06/09 03:20:23;;;;;;;1.23;1.13;;;;;;;-148.58;100.00;55229.56;5033525;28;20033;-62
2021/06/09 03:23:10;;;;;;;1.88;1.52;;;;;;;-148.58;100.00;55229.56;5033144;28;20472;-62
2021/06/09 03:25:42;;;;;;;1.10;1.02;;;;;;;-148.58;100.00;55229.56;5033209;28;20446;-64
2021/06/09 03:28:20;;;;;;;1.17;1.05;;;;;;;-148.58;100.00;55229.56;5033318;28;20017;-62
2021/06/09 03:30:53;;;;;;;1.88;1.30;;;;;;;-148.58;100.00;55229.56;5033403;28;20025;-63
2021/06/09 03:33:21;;;;;;;1.20;1.10;;;;;;;-148.58;100.00;55229.56;5033166;28;20021;-64
2021/06/09 03:35:58;;;;;;;1.67;1.48;;;;;;;-148.58;100.00;55229.56;5032981;28;20026;-62
2021/06/09 03:38:31;;;;;;;2.65;1.15;;;;;;;-148.58;100.00;55229.56;5033233;28;20025;-62
2021/06/09 03:41:03;;;;;;;0.70;0.70;;;;;;;-148.58;100.00;55229.56;5032853;28;20475;-63
2021/06/09 03:43:32;;;;;;;1.60;0.98;;;;;;;-148.58;100.00;55229.56;5032774;28;20033;-62
2021/06/09 03:45:59;;;;;;;0.77;0.77;;;;;;;-148.58;100.00;55229.56;5032897;28;20117;-62
2021/06/09 03:48:28;;;;;;;1.40;1.02;;;;;;;-148.58;100.00;55229.56;5033056;28;20017;-62
2021/06/09 03:50:58;;;;;;;1.02;0.93;;;;;;;-148.58;100.00;55229.56;5032602;28;20087;-63
2021/06/09 03:53:25;;;;;;;1.00;0.90;;;;;;;-148.58;100.00;55229.56;5032876;28;20354;-62
2021/06/09 03:55:54;;;;;;;0.70;0.70;;;;;;;-148.58;100.00;55229.56;5032121;28;20025;-62
2021/06/09 03:58:20;;;;;;;0.88;0.80;;;;;;;-148.58;100.00;55229.56;5032891;28;20724;-63
2021/06/09 04:00:47;;;;;;;0.70;0.70;;;;;;;-148.58;100.00;55229.56;5032601;28;20259;-63
2021/06/09 04:03:12;;;;;;;1.02;0.80;;;;;;;-148.58;100.00;55229.56;5032789;28;20063;-62
2021/06/09 04:05:41;;;;;;;0.70;0.70;;;;;;;-148.58;100.00;55229.56;5032493;28;20213;-63
2021/06/09 04:08:11;;;;;;;1.00;0.77;;;;;;;-148.58;100.00;55229.56;5032741;28;20025;-63
2021/06/09 04:10:37;;;;;;;0.65;0.63;;;;;;;-148.58;100.00;55229.56;5032546;28;20484;-63
2021/06/09 04:13:03;;;;;;;3.10;1.00;;;;;;;-148.58;100.00;55229.56;5032437;28;20416;-62
2021/06/09 04:15:30;;;;;;;0.50;0.50;;;;;;;-148.58;100.00;55229.56;5032530;28;20029;-62
2021/06/09 04:17:58;;;;;;;0.50;0.50;;;;;;;-148.58;100.00;55229.56;5032443;28;20025;-62
2021/06/09 04:20:26;;;;;;;0.60;0.60;;;;;;;-148.58;100.00;55229.56;5032380;28;20512;-63
2021/06/09 04:22:52;;;;;;;0.55;0.50;;;;;;;-148.58;100.00;55229.56;5032269;28;20025;-62
2021/06/09 04:25:19;;;;;;;0.50;0.47;;;;;;;-148.58;100.00;55229.56;5031221;28;20404;-63
2021/06/09 04:27:45;;;;;;;0.45;0.40;;;;;;;-148.58;100.00;55229.56;5032219;28;20060;-63
2021/06/09 04:30:12;;;;;;;0.68;0.45;;;;;;;-148.58;100.00;55229.56;5032420;28;20442;-62
2021/06/09 04:32:56;;;;;;;0.65;0.50;;;;;;;-148.58;100.00;55229.56;5032252;28;20444;-62
2021/06/09 04:35:29;;;;;;;0.65;0.40;;;;;;;-148.58;100.00;55229.56;5032479;28;20491;-64
2021/06/09 04:37:55;;;;;;;0.75;0.32;;;;;;;-148.58;100.00;55229.56;5032214;28;20469;-62
2021/06/09 04:40:23;;;;;;;0.82;0.55;;;;;;;-148.58;100.00;55229.56;5032400;28;20104;-62
2021/06/09 04:42:51;;;;;;;1.38;0.43;;;;;;;-148.58;100.00;55229.56;5031939;28;20037;-63
2021/06/09 04:45:18;;;;;;;0.88;0.40;;;;;;;-148.58;100.00;55229.56;5032372;28;20510;-63
2021/06/09 04:47:45;;;;;;;0.30;0.30;;;;;;;-148.58;100.00;55229.56;5031989;28;20029;-63
2021/06/09 04:50:11;;;;;;;0.57;0.40;;;;;;;-148.58;100.00;55229.56;5032241;28;20021;-62
2021/06/09 04:52:36;;;;;;;0.38;0.35;;;;;;;-148.58;100.00;55229.56;5032010;28;20029;-63
2021/06/09 04:55:03;;;;;;;0.40;0.40;;;;;;;-148.58;100.00;55229.56;5032663;28;20025;-63
2021/06/09 04:57:28;;;;;;;0.60;0.38;;;;;;;-148.58;100.00;55229.56;5032053;28;20033;-63
2021/06/09 04:59:53;;;;;;;0.90;0.20;;;;;;;-148.58;100.00;55229.56;5032017;28;20037;-63
2021/06/09 05:02:20;;;;;;;0.65;0.30;;;;;;;-148.58;100.00;55229.56;5032279;28;20040;-63
2021/06/09 05:04:45;;;;;;;0.15;0.15;;;;;;;-148.58;100.00;55229.56;5032220;28;20088;-63
2021/06/09 05:07:10;;;;;;;0.30;0.30;;;;;;;-148.58;100.00;55229.56;5032793;28;20473;-63
2021/06/09 05:09:36;;;;;;;0.40;0.30;;;;;;;-148.58;100.00;55229.56;5035809;28;20060;-63
2021/06/09 05:12:06;;;;;;;0.40;0.30;;;;;;;-148.58;100.00;55229.56;5035663;28;20103;-63
2021/06/09 05:14:33;;;;;;;0.28;0.28;;;;;;;-148.58;100.00;55229.56;5018026;28;20473;-64
2021/06/09 05:17:00;;;;;;;0.52;0.22;;;;;;;-148.58;100.00;55229.56;5034389;28;20483;-63
2021/06/09 05:19:28;;;;;;;0.43;0.30;;;;;;;-148.58;100.00;55229.56;5035817;28;20021;-62
2021/06/09 05:22:01;;;;;;;0.47;0.20;;;;;;;-148.58;100.00;55229.56;5035584;28;20025;-63
2021/06/09 05:24:28;;;;;;;1.17;0.47;;;;;;;-148.58;100.00;55229.56;5035751;28;20080;-64
2021/06/09 05:26:55;;;;;;;0.73;0.20;;;;;;;-148.58;100.00;55229.56;5035409;28;20036;-64
2021/06/09 05:29:21;;;;;;;0.50;0.30;;;;;;;-148.58;100.00;55229.56;5035628;28;20299;-62
2021/06/09 05:31:49;;;;;;;0.30;0.30;;;;;;;-148.58;100.00;55229.56;5035355;28;20029;-63
2021/06/09 05:34:16;;;;;;;0.10;0.10;;;;;;;-148.58;100.00;55229.56;5035461;28;20028;-64
2021/06/09 05:36:41;;;;;;;0.30;0.20;;;;;;;-148.58;100.00;55229.56;5017466;28;20025;-63
2021/06/09 05:39:07;;;;;;;0.35;0.20;;;;;;;-148.58;100.00;55229.56;5017585;28;20487;-63
2021/06/09 05:41:32;;;;;;;0.52;0.20;;;;;;;-148.58;100.00;55229.56;5035149;28;20032;-63
2021/06/09 05:43:58;;;;;;;0.15;0.10;;;;;;;-148.58;100.00;55229.56;5035013;28;20052;-63
2021/06/09 05:46:27;;;;;;;0.30;0.20;;;;;;;-148.58;100.00;55229.56;5035295;28;20026;-64
2021/06/09 05:48:53;;;;;;;0.17;0.10;;;;;;;-148.58;100.00;55229.56;5034967;28;20124;-62
2021/06/09 05:51:18;;;;;;;0.30;0.30;;;;;;;-148.58;100.00;55229.56;5035232;28;20148;-63
2021/06/09 05:53:44;;;;;;;0.20;0.20;;;;;;;-148.58;100.00;55229.56;5034879;28;20023;-63
2021/06/09 05:56:10;;;;;;;0.15;0.15;;;;;;;-148.58;100.00;55229.56;5035221;28;20373;-63
2021/06/09 05:58:38;;;;;;;0.43;0.10;;;;;;;-148.58;100.00;55229.56;5032903;28;20034;-63
2021/06/09 06:01:08;;;;;;;0.38;0.28;;;;;;;-148.58;100.00;55229.56;5020887;28;20026;-63
2021/06/09 06:03:34;;;;;;;1.35;0.15;;;;;;;-148.58;100.00;55229.56;5024707;28;20021;-62
2021/06/09 06:06:12;;;;;;;0.32;0.20;;;;;;;-148.58;100.00;55229.56;5021996;28;20032;-64
2021/06/09 06:08:40;;;;;;;0.40;0.10;;;;;;;-148.58;100.00;55229.56;5018704;28;20034;-65
2021/06/09 06:11:08;;;;;;;0.10;0.10;;;;;;;-148.58;100.00;55229.56;5034478;28;20076;-63
2021/06/09 06:13:35;;;;;;;0.30;0.10;;;;;;;-148.58;100.00;55229.56;5034540;28;20040;-63
2021/06/09 06:16:00;;;;;;;0.10;0.10;;;;;;;-148.58;100.00;55229.56;5051988;28;20025;-64
2021/06/09 06:18:37;;;;;;;0.55;0.20;;;;;;;-148.58;100.00;55229.56;5053013;28;20021;-64
2021/06/09 06:21:05;;;;;;;0.32;0.10;;;;;;;-148.58;100.00;55229.56;5051453;28;20635;-64
2021/06/09 06:23:32;;;;;;;0.45;0.20;;;;;;;-148.58;100.00;55229.56;5026131;28;20057;-66
2021/06/09 06:25:57;;;;;;;0.10;0.10;;;;;;;-148.58;100.00;55229.56;5032133;28;20432;-64
2021/06/09 06:28:23;;;;;;;0.70;0.20;;;;;;;-148.58;100.00;55229.56;5023861;28;20033;-63
2021/06/09 06:30:50;;;;;;;0.57;0.20;;;;;;;-148.58;100.00;55229.56;5002117;28;20228;-64
2021/06/09 06:33:16;;;;;;;0.75;0.20;;;;;;;-148.58;100.00;55229.56;5023303;28;20058;-63
2021/06/09 06:35:43;;;;;;;1.15;0.20;;;;;;;-148.58;100.00;55229.56;5043487;28;20033;-64
2021/06/09 06:38:08;;;;;;;0.88;0.20;;;;;;;-148.58;100.00;55229.56;5039513;28;20053;-64
2021/06/09 06:40:35;;;;;;;0.20;0.10;;;;;;;-148.58;100.00;55229.56;5034314;28;20021;-64
2021/06/09 06:43:01;;;;;;;0.65;0.10;;;;;;;-148.58;100.00;55229.56;5033967;28;20076;-64
2021/06/09 06:45:27;;;;;;;0.20;0.10;;;;;;;-148.58;100.00;55229.56;5034079;28;20037;-63
2021/06/09 06:47:53;;;;;;;0.47;0.10;;;;;;;-148.58;100.00;55229.56;5034859;28;20495;-64
2021/06/09 06:50:20;;;;;;;0.22;0.10;;;;;;;-148.58;100.00;55229.56;5033575;28;20099;-64
2021/06/09 06:52:46;;;;;;;0.10;0.10;;;;;;;-148.58;100.00;55229.56;5032616;28;20025;-64
2021/06/09 06:55:13;;;;;;;0.10;0.10;;;;;;;-148.58;100.00;55229.56;5031384;28;20048;-64
2021/06/09 06:57:39;;;;;;;1.48;0.30;;;;;;;-148.58;100.00;55229.56;5036587;28;20025;-64
2021/06/09 07:00:09;;;;;;;1.48;0.22;;;;;;;-148.58;100.00;55229.56;5031428;28;20029;-63
2021/06/09 07:02:35;;;;;;;2.35;0.20;;;;;;;-148.58;100.00;55229.56;5013629;28;20075;-64
2021/06/09 07:05:05;;;;;;;1.52;0.60;;;;;;;-148.58;100.00;55229.56;5031639;28;20312;-65
2021/06/09 07:07:32;;;;;;;0.30;0.20;;;;;;;-148.58;100.00;55229.56;5031789;28;20059;-66
2021/06/09 07:10:01;;;;;;;0.77;0.30;;;;;;;-148.58;100.00;55229.56;5031495;28;20064;-61
2021/06/09 07:12:27;;;;;;;3.53;0.50;;;;;;;-148.58;100.00;55229.56;5027176;28;20021;-61
2021/06/09 07:14:52;;;;;;;0.43;0.35;;;;;;;-148.58;100.00;55229.56;5019665;28;20025;-62
2021/06/09 07:17:20;;;;;;;4.80;0.70;;;;;;;-148.58;100.00;55229.56;5027556;28;20036;-61
2021/06/09 07:19:46;;;;;;;0.35;0.32;;;;;;;-148.58;100.00;55229.56;5021558;28;20026;-60
2021/06/09 07:22:12;;;;;;;2.38;0.28;;;;;;;-148.58;100.00;55229.56;5025383;28;20472;-60
2021/06/09 07:24:38;;;;;;;1.00;0.20;;;;;;;-148.58;100.00;55229.56;5033144;28;20076;-60
2021/06/09 07:27:04;;;;;;;1.75;0.43;;;;;;;-148.58;100.00;55229.56;5026891;28;20031;-61
2021/06/09 07:29:30;;;;;;;0.57;0.45;;;;;;;-148.58;100.00;55229.56;5028437;28;20033;-59
2021/06/09 07:31:56;;;;;;;1.05;0.32;;;;;;;-148.58;100.00;55229.56;5027922;28;20075;-60
2021/06/09 07:34:21;;;;;;;0.45;0.30;;;;;;;-148.58;100.00;55229.56;5017316;28;20076;-62
2021/06/09 07:36:58;;;;;;;1.58;0.50;;;;;;;-148.58;100.00;55229.56;5029665;28;20031;-62
2021/06/09 07:39:32;;;;;;;1.25;0.50;;;;;;;-148.58;100.00;55229.56;5014505;28;20041;-61
2021/06/09 07:42:05;;;;;;;1.80;0.60;;;;;;;-148.58;100.00;55229.56;5026335;28;20480;-61
2021/06/09 07:44:37;;;;;;;1.00;0.30;;;;;;;-148.58;100.00;55229.56;5026307;28;20170;-61
2021/06/09 07:47:06;;;;;;;0.63;0.40;;;;;;;-148.58;100.00;55229.56;5028418;28;20033;-62
2021/06/09 07:49:33;;;;;;;0.73;0.35;;;;;;;-148.58;100.00;55229.56;5031271;28;20532;-61
2021/06/09 07:51:58;;;;;;;3.25;0.60;;;;;;;-148.58;100.00;55229.56;5030961;28;20248;-60
2021/06/09 07:54:25;;;;;;;0.80;0.30;;;;;;;-148.58;100.00;55229.56;5030095;28;20481;-61
2021/06/09 07:56:52;;;;;;;1.30;0.22;;;;;;;-148.58;100.00;55229.56;5030570;28;20301;-61
2021/06/09 07:59:20;;;;;;;0.85;0.30;;;;;;;-148.58;100.00;55229.56;5031230;28;20021;-60
2021/06/09 08:01:46;;;;;;;1.33;0.50;;;;;;;-148.58;100.00;55229.56;5022528;28;20021;-61
2021/06/09 08:04:12;;;;;;;1.73;0.60;;;;;;;-148.58;100.00;55229.56;5025481;28;20117;-62
2021/06/09 08:06:39;;;;;;;0.65;0.30;;;;;;;-148.58;100.00;55229.56;5023780;28;20109;-60
2021/06/09 08:09:05;;;;;;;3.13;0.90;;;;;;;-148.58;100.00;55229.56;5027157;28;20029;-59
2021/06/09 08:11:31;;;;;;;0.60;0.43;;;;;;;-148.58;100.00;55229.56;5029737;28;20033;-62
2021/06/09 08:13:57;;;;;;;2.47;0.60;;;;;;;-148.58;100.00;55229.56;5024286;28;20041;-61
2021/06/09 08:16:22;;;;;;;1.98;0.20;;;;;;;-148.58;100.00;55229.56;5028294;28;20025;-61
2021/06/09 08:18:48;;;;;;;1.55;0.60;;;;;;;-148.58;100.00;55229.56;5032435;28;20500;-61
2021/06/09 08:21:19;;;;;;;2.78;0.40;;;;;;;-148.58;100.00;55229.56;5027560;28;20460;-61
2021/06/09 08:23:48;;;;;;;1.05;0.50;;;;;;;-148.58;100.00;55229.56;5027434;28;20021;-60
2021/06/09 08:26:14;;;;;;;1.63;0.55;;;;;;;-148.58;100.00;55229.56;5031476;28;20039;-61
2021/06/09 08:28:43;;;;;;;1.40;0.65;;;;;;;-148.58;100.00;55229.56;5013162;28;20025;-62
2021/06/09 08:31:10;;;;;;;0.95;0.40;;;;;;;-148.58;100.00;55229.56;5034962;28;20044;-63
2021/06/09 08:33:36;;;;;;;0.57;0.25;;;;;;;-148.58;100.00;55229.56;5028671;28;20025;-62
2021/06/09 08:36:06;;;;;;;0.60;0.40;;;;;;;-148.58;100.00;55229.56;5032171;28;20050;-67
2021/06/09 08:38:32;;;;;;;1.17;0.40;;;;;;;-148.58;100.00;55229.56;5030422;28;20025;-63
2021/06/09 08:40:58;;;;;;;2.92;0.40;;;;;;;-148.58;100.00;55229.56;5009092;28;20025;-62
2021/06/09 08:43:24;;;;;;;1.60;0.40;;;;;;;-148.58;100.00;55229.56;5025207;28;20497;-62
2021/06/09 08:45:49;;;;;;;1.05;0.63;;;;;;;-148.58;100.00;55229.56;5030741;28;20091;-60
2021/06/09 08:48:16;;;;;;;0.82;0.30;;;;;;;-148.58;100.00;55229.56;5024880;28;20504;-61
2021/06/09 08:50:43;;;;;;;1.55;0.60;;;;;;;-148.58;100.00;55229.56;5031714;28;20491;-67
2021/06/09 08:53:11;;;;;;;4.40;0.50;;;;;;;-148.58;100.00;55229.56;5035754;28;20095;-67
2021/06/09 08:55:37;;;;;;;2.00;0.40;;;;;;;-148.58;100.00;55229.56;5033326;28;20495;-61
2021/06/09 08:58:05;;;;;;;1.35;0.30;;;;;;;-148.58;100.00;55229.56;5020612;28;20033;-63
2021/06/09 09:00:33;;;;;;;2.15;0.47;;;;;;;-148.58;100.00;55229.56;5027627;28;20060;-62
2021/06/09 09:03:00;;;;;;;1.05;0.40;;;;;;;-148.58;100.00;55229.56;5029922;28;20030;-66
2021/06/09 09:05:27;;;;;;;2.05;0.38;;;;;;;-148.58;100.00;55229.56;5026558;28;20085;-64
2021/06/09 09:07:52;;;;;;;0.90;0.30;;;;;;;-148.58;100.00;55229.56;5028096;28;20415;-63
2021/06/09 09:10:19;;;;;;;0.55;0.20;;;;;;;-148.58;100.00;55229.56;5023159;28;20021;-61
2021/06/09 09:12:47;;;;;;;0.30;0.20;;;;;;;-148.58;100.00;55229.56;5030395;28;20379;-61
2021/06/09 09:15:13;;;;;;;0.40;0.30;;;;;;;-148.58;100.00;55229.56;5022465;28;20036;-61
2021/06/09 09:17:54;;;;;;;1.10;0.45;;;;;;;-148.58;100.00;55229.56;5025405;28;21249;-61
2021/06/09 09:20:42;;;;;;;0.30;0.30;;;;;;;-148.58;100.00;55229.56;5033238;28;20419;-61
2021/06/09 09:23:29;;;;;;;0.25;0.20;;;;;;;-148.58;100.00;55229.56;5029203;28;20477;-62
2021/06/09 09:25:56;;;;;;;0.32;0.25;;;;;;;-148.58;100.00;55229.56;5020652;28;20484;-62
2021/06/09 09:28:30;;;;;;;0.38;0.20;;;;;;;-148.58;100.00;55229.56;5017985;28;20026;-61
2021/06/09 09:31:05;;;;;;;0.47;0.30;;;;;;;-148.58;100.00;55229.56;5025352;28;20017;-62
2021/06/09 09:33:32;;;;;;;0.82;0.20;;;;;;;-148.58;100.00;55229.56;5031524;28;20156;-62
2021/06/09 09:35:57;;;;;;;0.20;0.20;;;;;;;-148.58;100.00;55229.56;5040387;28;20028;-61
2021/06/09 09:38:31;;;;;;;0.50;0.25;;;;;;;-148.58;100.00;55229.56;5038369;28;20025;-63
2021/06/09 09:41:06;;;;;;;0.35;0.20;;;;;;;-148.58;100.00;55229.56;5029424;28;20086;-61
2021/06/09 09:43:51;;;;;;;0.68;0.20;;;;;;;-148.58;100.00;55229.56;5041657;22;20156;-61
2021/06/09 09:46:21;;;;;;;0.17;0.17;;;;;;;-148.58;100.00;55229.56;5024430;28;20036;-62
2021/06/09 09:49:19;;;;;;;0.25;0.25;;;;;;;-148.58;100.00;55229.56;5030684;28;20036;-62
2021/06/09 09:51:44;;;;;;;0.88;0.20;;;;;;;-148.58;100.00;55229.56;4953432;29;20031;-61
2021/06/09 09:54:09;;;;;;;0.30;0.10;;;;;;;-148.58;100.00;55229.56;4939382;28;20038;-61
2021/06/09 09:56:37;;;;;;;0.35;0.10;;;;;;;-148.58;100.00;55229.56;4938029;29;20329;-62
2021/06/09 09:59:06;;;;;;;0.35;0.20;;;;;;;-148.58;100.00;55229.56;4948733;28;20122;-61
2021/06/09 10:01:39;;;;;;;0.52;0.20;;;;;;;-148.58;100.00;55229.56;4952570;29;20066;-61
2021/06/09 10:04:06;;;;;;;0.70;0.30;;;;;;;-148.58;100.00;55229.56;4950791;29;20078;-61
2021/06/09 10:06:43;;;;;;;0.50;0.20;;;;;;;-148.58;100.00;55229.56;4944794;29;20046;-61
2021/06/09 10:09:16;;;;;;;1.17;0.20;;;;;;;-148.58;100.00;55229.56;4933799;29;20057;-62
2021/06/09 10:11:47;;;;;;;0.60;0.30;;;;;;;-148.58;100.00;55229.56;4932586;29;20744;-61
2021/06/09 10:14:26;;;;;;;0.65;0.20;;;;;;;-148.58;100.00;55229.56;4932729;29;20080;-62
2021/06/09 10:17:03;;;;;;;0.22;0.20;;;;;;;-148.58;100.00;55229.56;4932477;29;20536;-62
2021/06/09 10:19:30;;;;;;;0.22;0.10;;;;;;;-148.58;100.00;55229.56;4932983;29;20035;-62
2021/06/09 10:22:02;;;;;;;0.57;0.20;;;;;;;-148.58;100.00;55229.56;4933563;29;20039;-61
2021/06/09 10:24:27;;;;;;;0.35;0.20;;;;;;;-148.58;100.00;55229.56;4934784;29;20045;-62
2021/06/09 10:26:58;;;;;;;0.55;0.20;;;;;;;-148.58;100.00;55229.56;4959476;28;20488;-62
2021/06/09 10:29:28;;;;;;;0.25;0.13;;;;;;;-148.58;100.00;55229.56;5014694;28;20053;-61
2021/06/09 10:32:05;;;;;;;0.20;0.20;;;;;;;-148.58;100.00;55229.56;5021504;28;20045;-61
2021/06/09 10:34:33;;;;;;;0.60;0.10;;;;;;;-148.58;100.00;55229.56;5034274;28;20036;-61
2021/06/09 10:37:00;;;;;;;0.40;0.15;;;;;;;-148.58;100.00;55229.56;5034311;28;20029;-61
2021/06/09 10:39:29;;;;;;;0.40;0.20;;;;;;;-148.58;100.00;55229.56;5034340;28;20025;-62
2021/06/09 10:41:57;;;;;;;0.30;0.10;;;;;;;-148.58;100.00;55229.56;5034168;28;20028;-62
2021/06/09 10:44:25;;;;;;;0.65;0.22;;;;;;;-148.58;100.00;55229.56;5016391;28;20046;-61
2021/06/09 10:46:54;;;;;;;0.17;0.10;;;;;;;-148.58;100.00;55229.56;5016094;28;20060;-62
2021/06/09 10:49:22;;;;;;;0.20;0.20;;;;;;;-148.58;100.00;55229.56;5034105;28;20465;-61
2021/06/09 10:51:54;;;;;;;0.38;0.10;;;;;;;-148.58;100.00;55229.56;5022627;28;20033;-61
2021/06/09 10:54:24;;;;;;;0.57;0.30;;;;;;;-148.58;100.00;55229.56;5027212;28;20401;-61
2021/06/09 10:56:50;;;;;;;0.40;0.10;;;;;;;-148.58;100.00;55229.56;5030509;28;20032;-61
2021/06/09 10:59:20;;;;;;;0.20;0.20;;;;;;;-148.58;100.00;55229.56;5033490;28;20032;-61
2021/06/09 11:01:49;;;;;;;2.08;0.43;;;;;;;-148.58;100.00;55229.56;5015740;28;20022;-62
2021/06/09 11:04:14;;;;;;;0.95;0.20;;;;;;;-148.58;100.00;55229.56;5031558;28;20499;-61
2021/06/09 11:06:46;;;;;;;0.20;0.20;;;;;;;-148.58;100.00;55229.56;5031616;28;20037;-61
2021/06/09 11:09:26;;;;;;;0.25;0.10;;;;;;;-148.58;100.00;55229.56;5031617;28;20030;-62
2021/06/09 11:12:13;;;;;;;0.70;0.13;;;;;;;-148.58;100.00;55229.56;5024918;28;20029;-63
2021/06/09 11:14:51;;;;;;;0.20;0.10;;;;;;;-148.58;100.00;55229.56;5016333;28;20045;-62
2021/06/09 11:17:40;;;;;;;0.55;0.20;;;;;;;-148.58;100.00;55229.56;5032343;28;20025;-62